Terminal Aerodrome Forecast
Issued by NWS

Home | Current Version | Previous Version | Text Only | Print | Product List | Glossary On
Versions: 1 2 3 4 5 6 7 8 9 10 11 12 13 14
801
FTUS41 KLWX 022339 AAA
TAFMTN
TAF AMD
KMTN 022339Z 0300/0324 VRB03KT 3SM SHRA VCTS OVC040CB
     FM030700 05005KT 3SM SHRA OVC008
     FM030900 03005KT 3SM SHRA OVC008
     FM031200 36009KT 5SM -SHRA OVC008
     FM031600 01006KT 5SM -SHRA OVC015
     FM031800 02005KT P6SM BKN015
     FM032300 08004KT P6SM BKN015
      AMD NOT SKED 0302/0312=

USA.gov is the U.S. government's official web portal to all federal, state and local government web resources and services.